Time;durP1;ratioP1;P1;durP2;ratioP2;P2;SDS_P1;SDS_P2;PMS_P1;PMS_P2;Temp;Humidity;BMP_temperature;BMP_pressure;BME280_temperature;BME280_humidity;BME280_pressure;Samples;Min_cycle;Max_cycle;Signal;HPM_P1;HPM_P2
2022/07/21 00:00:27;;;;;;;32.58;13.00;;;21.30;99.90;;;;;;5004137;28;20136;-87
2022/07/21 00:02:56;;;;;;;22.25;11.77;;;21.30;99.90;;;;;;5003427;28;20049;-88
2022/07/21 00:05:22;;;;;;;26.65;12.07;;;;;;;;;;5037154;28;20049;-87
2022/07/21 00:07:54;;;;;;;15.60;9.98;;;21.20;99.90;;;;;;5003156;28;20077;-87
2022/07/21 00:10:47;;;;;;;18.58;10.00;;;21.10;99.90;;;;;;5039885;28;20049;-87
2022/07/21 00:13:21;;;;;;;19.70;10.95;;;21.10;99.90;;;;;;4994993;28;20049;-88
2022/07/21 00:15:53;;;;;;;17.92;10.88;;;21.00;99.90;;;;;;5024535;28;20502;-88
2022/07/21 00:18:19;;;;;;;16.83;10.32;;;;;;;;;;5023992;28;20049;-88
2022/07/21 00:21:06;;;;;;;18.42;10.27;;;;;;;;;;5026010;28;20046;-88
2022/07/21 00:23:35;;;;;;;21.38;10.20;;;;;;;;;;5023963;28;20049;-88
2022/07/21 00:26:03;;;;;;;23.80;11.10;;;;;;;;;;5026386;28;20052;-88
2022/07/21 00:28:30;;;;;;;21.15;10.85;;;;;;;;;;5007852;28;20056;-88
2022/07/21 00:30:56;;;;;;;19.27;10.70;;;;;;;;;;5023585;28;20053;-88
2022/07/21 00:33:22;;;;;;;17.13;10.13;;;;;;;;;;5008255;28;20049;-87
2022/07/21 00:35:51;;;;;;;17.83;10.63;;;20.20;99.90;;;;;;5006490;28;20061;-87
2022/07/21 00:38:20;;;;;;;16.38;10.95;;;;;;;;;;5040659;28;20045;-88
2022/07/21 00:41:09;;;;;;;21.63;12.20;;;20.70;99.90;;;;;;5022284;28;20573;-87
2022/07/21 00:43:38;;;;;;;23.58;12.75;;;;;;;;;;4974759;28;20057;-87
2022/07/21 00:46:06;;;;;;;19.45;11.38;;;20.70;99.90;;;;;;5019150;28;20049;-87
2022/07/21 00:48:53;;;;;;;20.77;11.07;;;;;;;;;;5019098;28;20046;-87
2022/07/21 00:51:22;;;;;;;18.98;11.30;;;;;;;;;;5017710;28;20054;-87
2022/07/21 00:53:50;;;;;;;17.73;10.65;;;20.60;99.90;;;;;;5001841;28;20626;-87
2022/07/21 00:56:29;;;;;;;24.20;12.60;;;20.50;99.90;;;;;;5001951;28;20050;-87
2022/07/21 00:58:56;;;;;;;22.05;11.70;;;;;;;;;;5018663;28;20068;-87
2022/07/21 01:01:21;;;;;;;19.60;11.30;;;20.30;99.90;;;;;;5025340;23;20112;-75
2022/07/21 01:03:47;;;;;;;23.13;12.27;;;20.50;99.90;;;;;;4970661;28;20046;-75
2022/07/21 01:06:13;;;;;;;20.05;11.75;;;19.80;99.90;;;;;;4961883;28;20054;-76
2022/07/21 01:08:38;;;;;;;22.08;11.52;;;20.70;99.90;;;;;;4995718;28;20568;-76
2022/07/21 01:11:04;;;;;;;23.40;12.32;;;20.40;99.90;;;;;;4976108;28;20137;-76
2022/07/21 01:13:30;;;;;;;21.85;11.52;;;;;;;;;;4978177;28;20050;-76
2022/07/21 01:15:56;;;;;;;21.67;12.10;;;20.40;99.90;;;;;;4978163;28;20050;-76
2022/07/21 01:18:22;;;;;;;22.23;12.68;;;20.40;99.90;;;;;;4978278;28;20488;-76
2022/07/21 01:20:52;;;;;;;23.25;11.80;;;20.40;99.90;;;;;;4962190;28;20061;-76
2022/07/21 01:23:19;;;;;;;29.02;13.10;;;20.30;99.90;;;;;;4977695;28;20570;-75
2022/07/21 01:25:49;;;;;;;21.95;12.02;;;20.50;99.90;;;;;;4995526;28;20172;-76
2022/07/21 01:28:15;;;;;;;21.98;12.23;;;21.20;99.90;;;;;;4978003;28;20081;-75
2022/07/21 01:30:44;;;;;;;28.25;13.50;;;20.30;99.90;;;;;;4995398;28;20133;-76
2022/07/21 01:33:09;;;;;;;19.45;12.35;;;20.20;99.90;;;;;;4994403;28;20639;-76
2022/07/21 01:35:35;;;;;;;20.75;13.63;;;20.20;99.90;;;;;;4986462;28;20046;-76
2022/07/21 01:38:01;;;;;;;24.92;13.80;;;20.60;99.90;;;;;;4981085;28;20495;-76
2022/07/21 01:43:10;;;;;;;22.90;13.65;;;20.30;99.90;;;;;;5015289;28;20052;-76
2022/07/21 01:45:36;;;;;;;21.50;13.55;;;20.20;99.90;;;;;;4997195;28;20075;-75
2022/07/21 01:48:04;;;;;;;23.90;13.60;;;21.00;99.90;;;;;;4996926;28;20049;-76
2022/07/21 01:50:29;;;;;;;24.63;13.07;;;20.60;99.90;;;;;;5015335;28;20057;-76
2022/07/21 01:52:58;;;;;;;26.15;14.38;;;20.30;99.90;;;;;;4996705;28;20140;-76
2022/07/21 01:55:26;;;;;;;25.13;13.60;;;19.20;99.90;;;;;;4997142;28;20085;-76
2022/07/21 01:57:52;;;;;;;26.95;14.30;;;19.90;99.90;;;;;;4996661;28;20061;-76
2022/07/21 02:00:18;;;;;;;23.88;14.23;;;;;;;;;;4996032;28;20058;-77
2022/07/21 02:02:44;;;;;;;24.60;13.63;;;19.10;99.90;;;;;;5013809;28;20064;-76
2022/07/21 02:05:10;;;;;;;25.48;13.38;;;19.90;99.90;;;;;;5014916;28;20057;-76
2022/07/21 02:07:35;;;;;;;21.70;13.70;;;19.90;99.90;;;;;;4980542;28;20056;-76
2022/07/21 02:10:01;;;;;;;20.77;13.60;;;19.90;99.90;;;;;;4993172;28;20050;-76
2022/07/21 02:12:27;;;;;;;23.77;14.35;;;19.80;99.90;;;;;;4994837;28;20048;-76
2022/07/21 02:14:52;;;;;;;19.10;12.90;;;19.90;99.90;;;;;;4977000;28;20081;-76
2022/07/21 02:17:18;;;;;;;20.60;12.30;;;19.70;99.90;;;;;;4994831;28;20042;-75
2022/07/21 02:19:43;;;;;;;17.40;11.45;;;19.70;99.90;;;;;;4994901;28;20061;-76
2022/07/21 02:22:09;;;;;;;13.73;9.98;;;20.60;99.90;;;;;;4960862;28;20417;-75
2022/07/21 02:24:35;;;;;;;18.98;11.07;;;19.80;99.90;;;;;;4977157;28;20065;-75
2022/07/21 02:27:02;;;;;;;13.35;9.55;;;19.90;99.90;;;;;;4977352;28;20139;-75
2022/07/21 02:29:27;;;;;;;16.02;9.77;;;19.70;99.90;;;;;;4977390;28;20062;-76
2022/07/21 02:31:53;;;;;;;14.40;9.50;;;19.50;99.90;;;;;;4976584;28;20050;-76
2022/07/21 02:34:18;;;;;;;13.20;9.15;;;19.40;99.90;;;;;;4976964;28;20066;-76
2022/07/21 02:36:44;;;;;;;16.00;8.75;;;19.10;99.90;;;;;;4977245;28;20066;-75
2022/07/21 02:39:10;;;;;;;13.90;8.93;;;19.60;99.90;;;;;;4960752;28;20054;-76
2022/07/21 02:41:36;;;;;;;12.82;9.93;;;;;;;;;;4994360;28;20076;-75
2022/07/21 02:44:02;;;;;;;12.63;8.90;;;;;;;;;;4993948;28;20508;-76
2022/07/21 02:46:27;;;;;;;13.35;9.07;;;19.80;99.90;;;;;;4994809;28;20137;-75
2022/07/21 02:48:53;;;;;;;13.73;9.75;;;;;;;;;;4976716;28;20130;-75
2022/07/21 02:51:19;;;;;;;13.88;10.05;;;19.90;99.90;;;;;;4976780;28;20065;-75
2022/07/21 02:53:45;;;;;;;13.55;9.50;;;19.60;99.90;;;;;;4977242;28;20108;-75
2022/07/21 02:56:10;;;;;;;14.90;9.95;;;19.70;99.90;;;;;;4994167;28;20054;-76
2022/07/21 02:58:36;;;;;;;15.60;10.40;;;21.30;99.90;;;;;;4994097;28;20389;-75
2022/07/21 03:01:05;;;;;;;15.48;10.65;;;19.50;99.90;;;;;;4976587;28;20046;-76
2022/07/21 03:03:34;;;;;;;16.30;10.98;;;19.50;99.90;;;;;;4994042;28;20057;-76
2022/07/21 03:06:00;;;;;;;15.43;10.43;;;21.60;99.90;;;;;;4977339;28;20177;-75
2022/07/21 03:08:27;;;;;;;17.42;11.23;;;19.80;99.90;;;;;;4977068;28;20507;-75
2022/07/21 03:10:53;;;;;;;16.88;11.73;;;19.40;99.90;;;;;;4996177;28;20519;-76
2022/07/21 03:13:19;;;;;;;19.77;12.80;;;19.40;99.90;;;;;;4983188;28;20054;-76
2022/07/21 03:15:44;;;;;;;19.38;12.85;;;19.40;99.90;;;;;;4966681;28;20046;-76
2022/07/21 03:18:10;;;;;;;20.00;13.63;;;19.50;99.90;;;;;;4982204;28;20497;-75
2022/07/21 03:20:39;;;;;;;15.15;11.88;;;21.30;99.90;;;;;;5000151;28;20053;-75
2022/07/21 03:23:05;;;;;;;21.80;13.88;;;19.40;99.90;;;;;;4993465;28;20081;-75
2022/07/21 03:25:32;;;;;;;22.98;14.20;;;19.50;99.90;;;;;;4992542;28;20120;-75
2022/07/21 03:27:57;;;;;;;20.85;14.27;;;19.50;99.90;;;;;;4976511;28;20069;-75
2022/07/21 03:30:24;;;;;;;22.35;15.32;;;19.50;99.90;;;;;;4994515;28;20485;-76
2022/07/21 03:32:51;;;;;;;21.98;15.43;;;19.50;99.90;;;;;;4994447;28;20066;-75
2022/07/21 03:35:17;;;;;;;23.67;16.17;;;19.60;99.90;;;;;;4995634;28;20401;-75
2022/07/21 03:37:49;;;;;;;24.02;15.90;;;19.20;99.90;;;;;;4999702;28;20106;-76
2022/07/21 03:40:17;;;;;;;24.85;17.33;;;19.50;99.90;;;;;;4976414;28;20481;-76
2022/07/21 03:42:43;;;;;;;23.08;15.68;;;19.50;99.90;;;;;;4976145;28;20510;-76
2022/07/21 03:45:09;;;;;;;29.88;18.63;;;19.70;99.90;;;;;;4997259;28;20139;-76
2022/07/21 03:47:35;;;;;;;24.55;17.38;;;19.60;99.90;;;;;;4997508;28;20050;-76
2022/07/21 03:50:01;;;;;;;27.35;18.38;;;20.00;99.90;;;;;;4979465;28;20137;-76
2022/07/21 03:52:27;;;;;;;26.27;17.45;;;19.50;99.90;;;;;;4997177;28;20501;-75
2022/07/21 03:55:07;;;;;;;29.73;20.38;;;19.50;99.90;;;;;;4979987;28;20065;-75
2022/07/21 03:57:53;;;;;;;30.85;20.20;;;19.40;99.90;;;;;;4963207;28;20081;-76
2022/07/21 04:00:22;;;;;;;29.90;21.00;;;19.30;99.90;;;;;;4997262;28;20129;-76
2022/07/21 04:02:48;;;;;;;30.10;20.55;;;19.50;99.90;;;;;;4978871;28;20046;-76
2022/07/21 04:05:16;;;;;;;34.50;22.67;;;19.50;99.90;;;;;;4979613;28;20134;-76
2022/07/21 04:07:43;;;;;;;32.00;23.17;;;19.60;99.90;;;;;;4979545;28;20343;-76
2022/07/21 04:10:11;;;;;;;32.67;23.23;;;19.90;99.90;;;;;;4996629;28;20050;-75
2022/07/21 04:12:37;;;;;;;35.20;24.98;;;20.20;99.90;;;;;;4997230;28;20061;-76
2022/07/21 04:15:07;;;;;;;42.97;28.10;;;19.60;99.90;;;;;;4979253;28;20073;-76
2022/07/21 04:17:33;;;;;;;33.75;24.52;;;19.80;99.90;;;;;;4996934;28;20058;-75
2022/07/21 04:19:59;;;;;;;40.55;28.25;;;21.20;99.90;;;;;;4963353;28;20416;-76
2022/07/21 04:22:25;;;;;;;37.40;26.40;;;22.00;99.90;;;;;;4979492;28;20054;-76
2022/07/21 04:24:50;;;;;;;38.90;28.15;;;19.60;99.90;;;;;;4997350;28;20054;-76
2022/07/21 04:27:16;;;;;;;39.33;28.50;;;19.40;99.90;;;;;;4980322;28;20206;-76
2022/07/21 04:29:42;;;;;;;33.63;26.45;;;19.40;99.90;;;;;;4979096;28;20497;-76
2022/07/21 04:32:10;;;;;;;38.35;26.13;;;19.60;99.90;;;;;;4997325;28;20046;-76
2022/07/21 04:34:36;;;;;;;38.83;26.88;;;19.50;99.90;;;;;;4979465;28;20470;-76
2022/07/21 04:37:02;;;;;;;35.85;25.48;;;19.50;99.90;;;;;;4997125;28;20137;-76
2022/07/21 04:39:28;;;;;;;30.90;23.20;;;19.50;99.90;;;;;;4996908;28;20042;-76
2022/07/21 04:41:54;;;;;;;26.60;20.15;;;19.20;99.90;;;;;;4996480;28;20055;-76
2022/07/21 04:44:20;;;;;;;27.25;21.10;;;19.50;99.90;;;;;;4995743;28;20113;-76
2022/07/21 04:46:45;;;;;;;28.25;21.45;;;19.30;99.90;;;;;;4962473;28;20073;-76
2022/07/21 04:49:11;;;;;;;28.23;22.60;;;20.00;99.90;;;;;;4979147;28;20386;-76
2022/07/21 04:51:36;;;;;;;30.98;22.90;;;19.30;99.90;;;;;;4978522;28;20065;-76
2022/07/21 04:54:02;;;;;;;30.92;24.13;;;19.70;99.90;;;;;;4978414;28;20432;-77
2022/07/21 04:56:27;;;;;;;27.23;23.48;;;19.90;99.90;;;;;;4978871;28;20054;-77
2022/07/21 04:58:53;;;;;;;32.40;24.08;;;19.50;99.90;;;;;;4978244;28;20134;-76
2022/07/21 05:01:19;;;;;;;37.47;26.48;;;;;;;;;;4996881;28;20114;-77
2022/07/21 05:03:45;;;;;;;31.67;25.20;;;19.50;99.90;;;;;;4988562;28;20054;-76
2022/07/21 05:06:11;;;;;;;34.92;26.05;;;19.30;99.90;;;;;;4986890;28;20062;-76
2022/07/21 05:08:37;;;;;;;36.63;27.40;;;19.50;99.90;;;;;;5001843;28;20416;-76
2022/07/21 05:11:03;;;;;;;36.60;27.63;;;20.00;99.90;;;;;;5000441;28;20467;-77
2022/07/21 05:13:29;;;;;;;32.53;25.67;;;;;;;;;;4980581;28;20093;-76
2022/07/21 05:15:54;;;;;;;38.72;27.02;;;19.50;99.90;;;;;;4978491;28;20062;-76
2022/07/21 05:18:20;;;;;;;36.50;27.27;;;19.50;99.90;;;;;;4997897;28;20108;-77
2022/07/21 05:20:47;;;;;;;35.90;25.88;;;19.40;99.90;;;;;;5002532;28;20087;-76
2022/07/21 05:23:12;;;;;;;34.80;24.83;;;19.60;99.90;;;;;;5007597;28;20050;-76
2022/07/21 05:25:38;;;;;;;28.77;22.88;;;19.60;99.90;;;;;;4996699;28;20507;-76
2022/07/21 05:28:06;;;;;;;28.00;22.35;;;19.60;99.90;;;;;;4993441;28;20058;-76
2022/07/21 05:30:31;;;;;;;30.52;22.75;;;19.80;99.90;;;;;;5015674;28;20050;-76
2022/07/21 05:32:58;;;;;;;31.10;20.90;;;19.70;99.90;;;;;;4998718;28;20062;-77
2022/07/21 05:35:23;;;;;;;22.38;18.70;;;19.80;99.90;;;;;;5014992;28;20069;-77
2022/07/21 05:37:49;;;;;;;26.65;18.63;;;19.90;99.90;;;;;;4979604;28;20101;-77
2022/07/21 05:40:15;;;;;;;25.35;19.73;;;20.00;99.90;;;;;;4996297;28;20050;-77
2022/07/21 05:42:41;;;;;;;26.38;19.67;;;20.00;99.90;;;;;;4996591;28;20053;-77
2022/07/21 05:45:07;;;;;;;25.35;19.23;;;20.80;99.90;;;;;;4995309;28;20194;-77
2022/07/21 05:47:33;;;;;;;23.58;19.52;;;20.10;99.90;;;;;;4996766;28;20128;-78
2022/07/21 05:49:58;;;;;;;22.00;18.85;;;21.50;99.90;;;;;;4997072;28;20177;-77
2022/07/21 05:52:25;;;;;;;21.25;18.50;;;23.00;99.90;;;;;;4980751;28;20072;-77
2022/07/21 05:54:54;;;;;;;26.83;20.00;;;20.30;99.90;;;;;;4995800;28;20050;-78
2022/07/21 05:57:19;;;;;;;23.85;20.13;;;20.10;99.90;;;;;;5010699;28;20455;-77
2022/07/21 05:59:48;;;;;;;25.17;19.85;;;20.30;99.90;;;;;;5014192;28;20050;-77
2022/07/21 06:02:14;;;;;;;31.33;21.17;;;20.00;99.90;;;;;;5001944;28;20066;-77
2022/07/21 06:04:40;;;;;;;27.80;20.33;;;19.90;99.90;;;;;;4977263;28;20050;-77
2022/07/21 06:07:05;;;;;;;24.77;20.48;;;19.90;99.90;;;;;;4993889;28;20050;-77
2022/07/21 06:09:32;;;;;;;27.92;20.60;;;;;;;;;;4961236;28;20054;-76
2022/07/21 06:11:57;;;;;;;26.40;21.30;;;19.90;99.90;;;;;;4960425;28;20058;-76
2022/07/21 06:14:23;;;;;;;30.50;22.58;;;20.40;99.90;;;;;;4994135;28;20555;-76
2022/07/21 06:16:49;;;;;;;28.55;22.10;;;19.80;99.90;;;;;;4994002;28;20580;-76
2022/07/21 06:19:15;;;;;;;34.58;22.35;;;19.80;99.90;;;;;;4983333;28;20082;-76
2022/07/21 06:21:40;;;;;;;29.50;23.52;;;19.70;99.90;;;;;;4996109;28;20099;-76
2022/07/21 06:24:07;;;;;;;29.10;22.17;;;19.70;99.90;;;;;;4996197;28;20120;-76
2022/07/21 06:26:33;;;;;;;35.25;23.02;;;19.50;99.90;;;;;;5013539;28;20085;-76
2022/07/21 06:28:59;;;;;;;30.95;22.05;;;20.20;99.90;;;;;;5013171;28;20089;-76
2022/07/21 06:31:24;;;;;;;31.23;22.88;;;21.20;99.90;;;;;;5013059;28;20515;-76
2022/07/21 06:33:50;;;;;;;31.27;23.75;;;19.70;99.90;;;;;;5009807;28;20054;-76
2022/07/21 06:36:15;;;;;;;33.08;23.50;;;20.30;99.90;;;;;;5014096;28;20052;-76
2022/07/21 06:38:41;;;;;;;29.27;22.80;;;19.10;99.90;;;;;;4979393;28;20146;-76
2022/07/21 06:41:07;;;;;;;27.00;22.67;;;19.70;99.90;;;;;;5013326;28;20045;-77
2022/07/21 06:43:34;;;;;;;30.75;23.00;;;20.60;99.90;;;;;;5013233;28;20053;-77
2022/07/21 06:45:59;;;;;;;29.42;23.08;;;18.90;99.90;;;;;;5013186;28;20084;-77
2022/07/21 06:48:27;;;;;;;34.03;23.52;;;19.80;99.90;;;;;;5013048;28;20045;-76
2022/07/21 06:50:53;;;;;;;29.95;23.05;;;20.10;99.90;;;;;;4995451;28;20046;-76
2022/07/21 06:53:19;;;;;;;29.77;23.92;;;20.20;99.90;;;;;;4994922;28;20061;-76
2022/07/21 06:55:45;;;;;;;28.85;23.17;;;19.60;99.90;;;;;;4995981;28;20054;-76
2022/07/21 06:58:13;;;;;;;31.67;23.92;;;19.80;99.90;;;;;;5012960;28;20058;-77
2022/07/21 07:00:39;;;;;;;27.98;23.42;;;19.80;99.90;;;;;;4978456;28;20050;-76
2022/07/21 07:03:05;;;;;;;30.60;23.17;;;20.60;99.90;;;;;;4994889;28;20176;-77
2022/07/21 07:05:31;;;;;;;29.80;23.65;;;20.40;99.90;;;;;;4995607;28;20058;-76
2022/07/21 07:07:56;;;;;;;32.10;23.30;;;20.10;99.90;;;;;;5012938;28;20070;-76
2022/07/21 07:10:22;;;;;;;28.38;22.77;;;20.80;99.90;;;;;;5012689;28;20125;-76
2022/07/21 07:12:48;;;;;;;29.52;23.60;;;20.70;99.90;;;;;;4995374;28;20412;-76
2022/07/21 07:15:13;;;;;;;28.50;22.52;;;21.40;99.90;;;;;;5012764;28;20057;-76
2022/07/21 07:17:39;;;;;;;27.92;22.75;;;20.80;99.90;;;;;;5014491;28;20042;-77
2022/07/21 07:20:08;;;;;;;28.85;23.90;;;21.00;99.90;;;;;;4999018;28;20528;-76
2022/07/21 07:22:33;;;;;;;33.22;24.17;;;21.10;99.90;;;;;;4982619;28;20138;-77
2022/07/21 07:24:59;;;;;;;32.35;23.77;;;21.20;99.90;;;;;;5016391;28;20124;-76
2022/07/21 07:27:25;;;;;;;24.85;21.13;;;21.30;99.90;;;;;;4982609;28;20456;-76
2022/07/21 07:29:50;;;;;;;29.27;23.60;;;22.40;99.90;;;;;;5016760;28;20046;-76
2022/07/21 07:32:16;;;;;;;27.13;21.75;;;21.70;99.90;;;;;;5016164;28;20125;-76
2022/07/21 07:34:41;;;;;;;26.95;22.73;;;21.60;99.90;;;;;;4982087;28;20133;-76
2022/07/21 07:37:07;;;;;;;29.92;24.33;;;21.80;99.90;;;;;;4982428;28;20042;-76
2022/07/21 07:39:33;;;;;;;28.15;22.77;;;21.90;99.90;;;;;;5016556;28;20073;-76
2022/07/21 07:41:59;;;;;;;24.88;21.08;;;22.00;99.90;;;;;;5016232;28;20049;-76
2022/07/21 07:44:25;;;;;;;23.45;20.88;;;22.00;99.90;;;;;;4998929;28;20046;-76
2022/07/21 07:46:50;;;;;;;24.33;20.95;;;22.30;99.90;;;;;;5013216;28;20045;-75
2022/07/21 07:49:16;;;;;;;25.75;21.63;;;21.70;99.90;;;;;;4998753;28;20038;-74
2022/07/21 07:51:42;;;;;;;23.25;19.83;;;;;;;;;;4998498;28;20464;-75
2022/07/21 07:54:08;;;;;;;25.67;19.73;;;23.30;99.90;;;;;;4998424;28;20088;-75
2022/07/21 07:56:34;;;;;;;20.40;17.50;;;25.10;99.90;;;;;;5015591;28;20062;-76
2022/07/21 07:59:00;;;;;;;21.60;18.25;;;24.20;99.90;;;;;;5012668;28;20054;-76
2022/07/21 08:01:25;;;;;;;20.38;17.27;;;26.20;99.90;;;;;;5015696;28;20045;-76
2022/07/21 08:03:51;;;;;;;20.58;17.75;;;24.40;99.90;;;;;;4981887;28;20468;-75
2022/07/21 08:06:17;;;;;;;21.88;18.65;;;24.20;99.90;;;;;;5015697;28;20049;-76
2022/07/21 08:08:42;;;;;;;23.42;17.65;;;23.90;99.90;;;;;;4981876;28;20049;-76
2022/07/21 08:11:10;;;;;;;20.88;18.00;;;;;;;;;;4998195;28;20049;-76
2022/07/21 08:13:36;;;;;;;23.30;19.63;;;23.30;99.90;;;;;;4997952;28;20070;-76
2022/07/21 08:16:02;;;;;;;22.70;20.13;;;23.10;99.90;;;;;;4998397;28;20100;-76
2022/07/21 08:18:28;;;;;;;23.38;19.83;;;;;;;;;;4998199;28;20469;-77
2022/07/21 08:20:53;;;;;;;23.52;20.23;;;22.60;99.90;;;;;;4998470;28;20566;-77
2022/07/21 08:23:22;;;;;;;26.88;21.67;;;22.50;99.90;;;;;;4982445;28;20484;-77
2022/07/21 08:25:48;;;;;;;23.08;20.67;;;22.40;99.90;;;;;;4982279;28;20050;-77
2022/07/21 08:28:15;;;;;;;24.98;22.05;;;22.70;99.90;;;;;;5015446;28;20060;-76
2022/07/21 08:30:41;;;;;;;25.02;21.63;;;23.20;99.90;;;;;;5014836;28;20052;-75
2022/07/21 08:33:07;;;;;;;22.42;19.80;;;23.50;99.90;;;;;;4997923;28;20042;-75
2022/07/21 08:35:34;;;;;;;22.67;19.15;;;23.90;99.90;;;;;;4997752;28;20042;-75
2022/07/21 08:38:11;;;;;;;21.52;17.33;;;24.90;99.90;;;;;;4997440;28;20093;-75
2022/07/21 08:40:45;;;;;;;20.95;16.50;;;24.70;99.90;;;;;;5015023;28;20046;-76
2022/07/21 08:43:13;;;;;;;17.83;16.00;;;25.10;99.90;;;;;;4993055;28;20058;-76
2022/07/21 08:45:39;;;;;;;20.92;17.38;;;25.10;99.90;;;;;;4997625;28;20516;-76
2022/07/21 08:48:06;;;;;;;19.55;16.67;;;23.80;99.90;;;;;;4992205;28;20061;-77
2022/07/21 08:50:35;;;;;;;19.60;16.48;;;24.80;99.90;;;;;;4997392;28;20053;-75
2022/07/21 08:53:01;;;;;;;17.55;15.07;;;24.60;99.90;;;;;;5014740;28;20038;-75
2022/07/21 08:55:32;;;;;;;20.15;16.65;;;24.40;99.90;;;;;;4997197;28;20045;-76
2022/07/21 08:57:58;;;;;;;20.10;15.73;;;24.20;99.90;;;;;;4995464;28;20057;-75
2022/07/21 09:00:24;;;;;;;21.50;16.35;;;24.00;99.90;;;;;;5014404;28;20151;-76
2022/07/21 09:03:18;;;;;;;21.25;16.45;;;23.60;99.90;;;;;;5014817;28;20483;-77
2022/07/21 09:06:04;;;;;;;19.17;15.85;;;23.50;99.90;;;;;;5014735;28;20046;-76
2022/07/21 09:08:40;;;;;;;18.77;15.98;;;23.40;99.90;;;;;;4997193;28;20061;-76
2022/07/21 09:11:28;;;;;;;17.73;15.60;;;23.40;99.90;;;;;;4995554;28;20057;-75
2022/07/21 09:14:11;;;;;;;19.48;15.18;;;23.60;99.90;;;;;;4995899;28;20116;-76
2022/07/21 09:16:51;;;;;;;21.02;14.57;;;23.90;99.90;;;;;;5014535;28;20049;-75
2022/07/21 09:19:25;;;;;;;17.17;14.60;;;24.20;99.90;;;;;;4980530;28;20054;-75
2022/07/21 09:21:54;;;;;;;17.88;15.73;;;25.20;99.90;;;;;;4996598;28;20049;-76
2022/07/21 09:24:26;;;;;;;20.85;15.52;;;25.00;99.90;;;;;;5014397;28;20058;-75
2022/07/21 09:27:05;;;;;;;22.38;15.68;;;25.40;99.90;;;;;;4994514;28;20038;-75
2022/07/21 09:29:37;;;;;;;21.13;15.45;;;25.60;99.90;;;;;;5014234;28;20428;-76
2022/07/21 09:32:14;;;;;;;19.63;15.57;;;25.90;99.90;;;;;;5014478;28;20038;-76
2022/07/21 09:34:40;;;;;;;19.15;15.35;;;26.20;99.90;;;;;;4973919;28;20137;-75
2022/07/21 09:37:06;;;;;;;20.88;15.73;;;26.30;99.90;;;;;;4996525;28;20136;-75
2022/07/21 09:39:41;;;;;;;21.23;16.17;;;25.90;99.90;;;;;;4980377;28;20539;-76
2022/07/21 09:42:25;;;;;;;19.40;16.08;;;25.40;99.90;;;;;;4995654;28;20072;-76
2022/07/21 09:44:54;;;;;;;19.77;15.50;;;25.00;99.90;;;;;;4996604;28;20058;-76
2022/07/21 09:47:23;;;;;;;22.02;16.20;;;25.00;99.90;;;;;;4979576;28;20483;-75
2022/07/21 09:49:49;;;;;;;19.40;16.20;;;25.00;99.90;;;;;;4996390;28;20104;-76
2022/07/21 09:52:24;;;;;;;21.30;16.92;;;24.90;99.90;;;;;;4996378;28;20049;-75
2022/07/21 09:54:54;;;;;;;22.40;17.60;;;24.80;99.90;;;;;;5009627;28;20050;-76
2022/07/21 09:57:21;;;;;;;24.02;18.63;;;24.50;99.90;;;;;;5013304;28;20088;-76
2022/07/21 09:59:48;;;;;;;28.85;19.10;;;24.50;99.90;;;;;;5013503;28;20465;-76
2022/07/21 10:02:21;;;;;;;24.48;19.67;;;24.40;99.90;;;;;;4979100;28;20049;-76
2022/07/21 10:04:59;;;;;;;26.65;20.65;;;23.90;99.90;;;;;;4995879;28;20062;-75
2022/07/21 10:07:26;;;;;;;26.00;20.27;;;23.80;99.90;;;;;;5009871;28;20046;-76
2022/07/21 10:09:53;;;;;;;25.42;20.50;;;23.80;99.90;;;;;;4995601;28;20424;-76
2022/07/21 10:12:20;;;;;;;29.65;21.20;;;23.80;99.90;;;;;;4995496;28;20050;-75
2022/07/21 10:14:46;;;;;;;28.60;21.67;;;23.30;99.90;;;;;;4994960;28;20054;-75
2022/07/21 10:17:14;;;;;;;33.88;22.10;;;23.80;99.90;;;;;;5013518;28;20133;-76
2022/07/21 10:20:13;;;;;;;33.55;24.40;;;23.30;99.90;;;;;;5010680;28;20057;-75
2022/07/21 10:22:57;;;;;;;30.48;24.17;;;23.10;99.90;;;;;;4991982;28;20046;-76
2022/07/21 10:25:25;;;;;;;34.15;25.25;;;23.00;99.90;;;;;;4993896;28;20120;-75
2022/07/21 10:28:10;;;;;;;35.22;24.75;;;23.10;99.90;;;;;;4991239;28;20057;-76
2022/07/21 10:30:43;;;;;;;32.50;24.85;;;23.10;99.90;;;;;;5013342;28;20054;-76
2022/07/21 10:33:09;;;;;;;34.85;25.60;;;23.70;99.90;;;;;;4978859;28;20050;-76
2022/07/21 10:35:38;;;;;;;30.55;24.77;;;23.30;99.90;;;;;;4995181;28;20056;-76
2022/07/21 10:38:04;;;;;;;34.25;25.20;;;23.30;99.90;;;;;;4979471;28;20054;-76
2022/07/21 10:40:30;;;;;;;32.78;25.70;;;23.40;99.90;;;;;;4995839;28;20054;-76
2022/07/21 10:43:01;;;;;;;32.03;25.08;;;23.60;99.90;;;;;;4995574;28;20472;-76
2022/07/21 10:45:36;;;;;;;33.05;24.50;;;23.60;99.90;;;;;;4996008;28;20034;-76
2022/07/21 10:48:04;;;;;;;30.17;23.77;;;23.80;99.90;;;;;;4995748;28;20104;-76
2022/07/21 10:50:30;;;;;;;29.27;22.52;;;23.90;99.90;;;;;;4977407;28;20054;-75
2022/07/21 10:52:56;;;;;;;28.10;20.77;;;23.80;99.90;;;;;;4979664;28;20054;-76
2022/07/21 10:55:26;;;;;;;27.33;21.83;;;24.10;99.90;;;;;;5011555;28;20046;-75
2022/07/21 10:58:16;;;;;;;27.55;20.65;;;24.30;99.90;;;;;;4994468;28;20081;-74
2022/07/21 11:00:50;;;;;;;25.60;20.55;;;24.50;99.90;;;;;;5011174;28;20050;-76
2022/07/21 11:03:30;;;;;;;25.70;19.70;;;24.80;99.90;;;;;;4993923;28;20058;-76
2022/07/21 11:06:24;;;;;;;24.67;19.98;;;25.10;99.90;;;;;;4994769;28;20060;-75
2022/07/21 11:09:05;;;;;;;27.20;21.23;;;25.10;99.90;;;;;;5012673;28;20221;-76
2022/07/21 11:11:36;;;;;;;27.92;20.98;;;25.20;99.90;;;;;;4992729;28;20500;-75
2022/07/21 11:14:04;;;;;;;28.00;21.70;;;25.30;99.90;;;;;;4995488;28;20054;-76
2022/07/21 11:16:43;;;;;;;29.55;21.77;;;25.30;99.90;;;;;;4977827;28;20135;-76
2022/07/21 11:19:27;;;;;;;31.20;22.27;;;25.50;99.90;;;;;;5011562;28;20050;-76
2022/07/21 11:21:53;;;;;;;25.37;20.67;;;26.80;99.90;;;;;;4994331;28;20053;-75
2022/07/21 11:24:23;;;;;;;28.17;19.88;;;26.00;99.90;;;;;;4994752;28;20427;-76
2022/07/21 11:26:57;;;;;;;24.38;19.02;;;26.10;99.90;;;;;;4995443;28;20042;-75
2022/07/21 11:29:23;;;;;;;26.48;20.08;;;26.00;99.90;;;;;;5012549;28;20038;-75
2022/07/21 11:31:49;;;;;;;25.00;19.83;;;26.00;99.90;;;;;;4994689;28;20097;-76
2022/07/21 11:34:15;;;;;;;25.25;18.65;;;26.20;99.90;;;;;;5012100;28;20058;-74
2022/07/21 11:36:41;;;;;;;25.88;20.02;;;26.00;99.90;;;;;;5012525;28;20062;-75
2022/07/21 11:39:12;;;;;;;23.20;19.23;;;25.90;99.90;;;;;;4978533;28;20516;-75
2022/07/21 11:41:40;;;;;;;21.20;16.90;;;25.40;99.90;;;;;;5012260;28;20046;-75
2022/07/21 11:44:08;;;;;;;20.63;15.82;;;25.50;99.90;;;;;;4978580;28;20084;-74
2022/07/21 11:47:05;;;;;;;20.25;15.57;;;25.30;99.90;;;;;;5009529;28;20109;-75
2022/07/21 11:49:32;;;;;;;20.45;16.10;;;25.00;99.90;;;;;;5011606;28;20502;-76
2022/07/21 11:52:06;;;;;;;22.58;16.33;;;24.70;99.90;;;;;;5012317;28;20046;-75
2022/07/21 11:54:33;;;;;;;19.97;14.03;;;24.50;99.90;;;;;;4994808;28;20046;-75
2022/07/21 11:57:00;;;;;;;19.65;14.57;;;24.40;99.90;;;;;;5012831;28;20046;-75
2022/07/21 11:59:26;;;;;;;17.25;13.63;;;24.30;99.90;;;;;;5012238;28;20125;-75
2022/07/21 12:01:56;;;;;;;18.65;13.52;;;23.90;99.90;;;;;;4978081;28;20049;-75
2022/07/21 12:04:36;;;;;;;19.92;13.25;;;24.20;99.90;;;;;;4995581;28;20049;-74
2022/07/21 12:07:36;;;;;;;16.55;12.80;;;24.30;99.90;;;;;;5010506;28;20049;-74
2022/07/21 12:10:09;;;;;;;21.70;14.95;;;24.40;99.90;;;;;;5015048;28;21566;-75
2022/07/21 12:12:40;;;;;;;23.80;15.52;;;23.50;99.90;;;;;;5013903;28;20046;-74
2022/07/21 12:15:12;;;;;;;20.23;15.63;;;24.50;99.90;;;;;;5014919;28;20092;-75
2022/07/21 12:17:40;;;;;;;19.85;15.32;;;24.70;99.90;;;;;;4998209;28;20128;-75
2022/07/21 12:20:07;;;;;;;21.83;16.77;;;25.00;99.90;;;;;;4997743;28;20093;-75
2022/07/21 12:22:46;;;;;;;20.52;16.27;;;24.60;99.90;;;;;;5015237;28;20052;-75
2022/07/21 12:25:13;;;;;;;22.58;15.15;;;24.80;99.90;;;;;;4984929;28;20042;-75
2022/07/21 12:27:42;;;;;;;21.80;14.10;;;24.70;99.90;;;;;;5015417;28;20041;-75
2022/07/21 12:30:10;;;;;;;20.73;13.77;;;24.70;99.90;;;;;;5015257;28;20050;-75
2022/07/21 12:32:45;;;;;;;17.55;13.05;;;24.60;99.90;;;;;;4981735;28;20068;-76
2022/07/21 12:35:26;;;;;;;14.55;11.00;;;24.50;99.90;;;;;;4980867;28;20064;-75
2022/07/21 12:37:59;;;;;;;12.35;8.90;;;24.50;99.90;;;;;;5010475;28;20061;-75
2022/07/21 12:40:27;;;;;;;14.55;9.88;;;23.60;99.90;;;;;;4994955;28;20066;-75
2022/07/21 12:43:07;;;;;;;15.55;9.40;;;25.30;99.90;;;;;;5014893;28;20437;-75
2022/07/21 12:46:03;;;;;;;11.32;9.00;;;24.20;99.90;;;;;;4997763;28;20058;-75